createdAt,value
2022-12-24T00:01:08.434Z,5.28
2022-12-24T00:03:37.559Z,4.97
2022-12-24T00:06:09.144Z,5.85
2022-12-24T00:08:37.148Z,5.07
2022-12-24T00:11:04.644Z,5.88
2022-12-24T00:13:32.502Z,4.60
2022-12-24T00:16:00.251Z,4.93
2022-12-24T00:18:28.617Z,5.63
2022-12-24T00:20:56.960Z,5.00
2022-12-24T00:23:24.945Z,5.03
2022-12-24T00:25:52.490Z,5.93
2022-12-24T00:28:20.801Z,5.75
2022-12-24T00:30:49.947Z,5.55
2022-12-24T00:33:24.062Z,6.05
2022-12-24T00:35:53.196Z,5.78
2022-12-24T00:38:20.731Z,5.65
2022-12-24T00:40:49.122Z,5.85
2022-12-24T00:43:16.837Z,5.82
2022-12-24T00:45:44.274Z,5.43
2022-12-24T00:48:12.131Z,6.22
2022-12-24T00:50:39.704Z,6.88
2022-12-24T00:53:07.164Z,6.63
2022-12-24T00:55:34.715Z,5.85
2022-12-24T00:58:02.233Z,7.20
2022-12-24T01:03:36.886Z,6.68
2022-12-24T01:06:05.966Z,6.82
2022-12-24T01:08:33.872Z,7.72
2022-12-24T01:11:03.201Z,6.10
2022-12-24T01:13:30.767Z,6.18
2022-12-24T01:15:58.772Z,7.47
2022-12-24T01:18:26.465Z,7.05
2022-12-24T01:20:58.440Z,8.07
2022-12-24T01:23:25.974Z,6.80
2022-12-24T01:25:53.607Z,6.53
2022-12-24T01:28:21.787Z,8.25
2022-12-24T01:30:50.861Z,7.45
2022-12-24T01:33:19.726Z,6.25
2022-12-24T01:35:48.245Z,6.25
2022-12-24T01:38:16.016Z,5.97
2022-12-24T01:41:02.724Z,6.03
2022-12-24T01:43:34.736Z,6.10
2022-12-24T01:46:06.432Z,5.07
2022-12-24T01:48:34.190Z,5.82
2022-12-24T01:51:09.893Z,5.70
2022-12-24T01:53:38.992Z,5.18
2022-12-24T01:56:07.264Z,5.07
2022-12-24T01:58:36.467Z,5.85
2022-12-24T02:01:07.724Z,6.07
2022-12-24T02:03:35.754Z,5.97
2022-12-24T02:06:03.504Z,5.75
2022-12-24T02:08:40.171Z,5.13
2022-12-24T02:11:12.220Z,6.78
2022-12-24T02:13:41.993Z,5.55
2022-12-24T02:16:15.823Z,5.97
2022-12-24T02:19:02.984Z,5.22
2022-12-24T02:21:46.015Z,5.28
2022-12-24T02:24:42.744Z,5.90
2022-12-24T02:27:10.605Z,5.97
2022-12-24T02:29:41.338Z,5.93
2022-12-24T02:32:12.172Z,5.38
2022-12-24T02:34:42.048Z,5.55
2022-12-24T02:37:13.506Z,5.50
2022-12-24T02:40:01.468Z,5.72
2022-12-24T02:42:33.807Z,6.70
2022-12-24T02:45:06.408Z,6.28
2022-12-24T02:47:34.984Z,5.82
2022-12-24T02:50:03.107Z,6.80
2022-12-24T02:52:32.095Z,6.00
2022-12-24T02:55:02.206Z,7.75
2022-12-24T02:57:49.978Z,6.72
2022-12-24T03:00:20.957Z,6.97
2022-12-24T03:03:11.270Z,8.15
2022-12-24T03:05:53.774Z,6.90
2022-12-24T03:08:28.203Z,7.07
2022-12-24T03:11:00.380Z,7.35
2022-12-24T03:13:28.152Z,7.28
2022-12-24T03:15:56.138Z,8.50
2022-12-24T03:18:25.379Z,7.78
2022-12-24T03:21:05.073Z,7.38
2022-12-24T03:23:33.083Z,7.70
2022-12-24T03:26:02.492Z,8.40
2022-12-24T03:28:30.081Z,6.45
2022-12-24T03:31:03.971Z,8.77
2022-12-24T03:33:31.741Z,8.70
2022-12-24T03:35:59.919Z,8.80
2022-12-24T03:38:27.847Z,8.75
2022-12-24T03:40:55.392Z,9.10
2022-12-24T03:43:23.106Z,8.18
2022-12-24T03:45:50.669Z,7.57
2022-12-24T03:48:19.285Z,8.32
2022-12-24T03:50:47.116Z,9.85
2022-12-24T03:53:15.735Z,9.82
2022-12-24T03:55:43.737Z,9.25
2022-12-24T03:58:11.418Z,8.82
2022-12-24T04:00:39.306Z,9.48
2022-12-24T04:03:07.864Z,10.40
2022-12-24T04:05:35.560Z,9.57
2022-12-24T04:08:03.419Z,10.82
2022-12-24T04:10:31.214Z,9.88
2022-12-24T04:12:58.773Z,9.15
2022-12-24T04:15:26.397Z,9.50
2022-12-24T04:17:54.295Z,9.73
2022-12-24T04:20:22.206Z,10.57
2022-12-24T04:22:50.667Z,9.93
2022-12-24T04:25:19.516Z,9.65
2022-12-24T04:27:47.954Z,9.57
2022-12-24T04:30:15.949Z,10.63
2022-12-24T04:32:43.513Z,9.85
2022-12-24T04:35:10.905Z,8.93
2022-12-24T04:37:38.630Z,10.60
2022-12-24T04:40:06.393Z,9.55
2022-12-24T04:42:33.969Z,10.02
2022-12-24T04:45:01.641Z,9.45
2022-12-24T04:47:29.695Z,10.30
2022-12-24T04:50:01.539Z,9.23
2022-12-24T04:52:29.598Z,7.63
2022-12-24T04:54:57.246Z,9.25
2022-12-24T04:57:24.663Z,8.98
2022-12-24T04:59:52.255Z,9.25
2022-12-24T05:02:20.208Z,10.68
2022-12-24T05:04:48.130Z,8.15
2022-12-24T05:07:23.671Z,8.35
2022-12-24T05:09:51.637Z,8.88
2022-12-24T05:12:20.638Z,8.90
2022-12-24T05:14:48.224Z,9.85
2022-12-24T05:17:15.779Z,8.35
2022-12-24T05:19:43.401Z,9.43
2022-12-24T05:22:37.943Z,8.38
2022-12-24T05:25:24.639Z,8.48
2022-12-24T05:27:54.688Z,7.90
2022-12-24T05:30:22.287Z,8.98
2022-12-24T05:32:50.548Z,9.55
2022-12-24T05:35:18.299Z,8.50
2022-12-24T05:37:45.685Z,9.00
2022-12-24T05:40:13.358Z,8.45
2022-12-24T05:42:40.919Z,8.90
2022-12-24T05:45:08.993Z,9.55
2022-12-24T05:47:42.864Z,8.77
2022-12-24T05:50:11.277Z,8.75
2022-12-24T05:52:41.433Z,9.50
2022-12-24T05:55:09.454Z,10.27
2022-12-24T05:57:37.297Z,9.95
2022-12-24T06:00:05.328Z,11.35
2022-12-24T06:02:40.013Z,10.30
2022-12-24T06:05:08.098Z,10.85
2022-12-24T06:07:38.084Z,11.52
2022-12-24T06:10:05.954Z,10.95
2022-12-24T06:12:33.678Z,11.40
2022-12-24T06:15:02.581Z,10.10
2022-12-24T06:17:30.025Z,10.23
2022-12-24T06:19:57.949Z,11.20
2022-12-24T06:22:25.413Z,11.60
2022-12-24T06:24:53.257Z,11.95
2022-12-24T06:27:21.348Z,11.38
2022-12-24T06:29:52.325Z,12.10
2022-12-24T06:32:21.586Z,11.57
2022-12-24T06:34:50.843Z,12.05
2022-12-24T06:37:20.982Z,11.45
2022-12-24T06:39:49.599Z,11.48
2022-12-24T06:42:17.091Z,10.93
2022-12-24T06:44:45.723Z,11.32
2022-12-24T06:47:13.335Z,12.52
2022-12-24T06:49:41.467Z,10.77
2022-12-24T06:52:12.012Z,11.45
2022-12-24T06:54:39.413Z,11.05
2022-12-24T06:57:07.543Z,11.10
2022-12-24T06:59:35.560Z,11.57
2022-12-24T07:02:03.832Z,10.45
2022-12-24T07:04:31.639Z,10.57
2022-12-24T07:06:59.571Z,12.35
2022-12-24T07:09:27.362Z,10.55
2022-12-24T07:11:55.388Z,10.55
2022-12-24T07:14:22.929Z,10.48
2022-12-24T07:16:55.293Z,10.75
2022-12-24T07:19:26.293Z,10.07
2022-12-24T07:21:54.354Z,10.73
2022-12-24T07:24:21.964Z,10.65
2022-12-24T07:26:50.917Z,10.07
2022-12-24T07:29:19.411Z,10.45
2022-12-24T07:31:47.023Z,10.50
2022-12-24T07:34:18.172Z,10.77
2022-12-24T07:36:46.703Z,11.07
2022-12-24T07:39:14.482Z,9.73
2022-12-24T07:41:42.138Z,9.52
2022-12-24T07:44:12.623Z,9.80
2022-12-24T07:49:07.705Z,10.15
2022-12-24T07:51:35.807Z,8.93
2022-12-24T07:54:05.051Z,10.40
2022-12-24T07:56:33.297Z,9.68
2022-12-24T07:59:00.741Z,9.15
2022-12-24T08:01:28.472Z,8.73
2022-12-24T08:03:56.860Z,9.52
2022-12-24T08:06:24.434Z,9.35
2022-12-24T08:08:52.151Z,8.90
2022-12-24T08:11:20.406Z,11.35
2022-12-24T08:13:48.089Z,9.30
2022-12-24T08:16:15.671Z,9.07
2022-12-24T08:18:43.541Z,9.10
2022-12-24T08:21:11.604Z,9.80
2022-12-24T08:23:39.874Z,8.48
2022-12-24T08:26:08.211Z,8.20
2022-12-24T08:28:36.203Z,9.43
2022-12-24T08:31:06.029Z,8.63
2022-12-24T08:33:33.811Z,10.07
2022-12-24T08:36:03.486Z,8.63
2022-12-24T08:38:31.251Z,8.60
2022-12-24T08:40:59.387Z,7.97
2022-12-24T08:43:27.643Z,8.75
2022-12-24T08:45:55.220Z,9.95
2022-12-24T08:48:27.458Z,8.35
2022-12-24T08:50:55.241Z,8.80
2022-12-24T08:53:22.843Z,9.02
2022-12-24T08:55:55.987Z,9.10
2022-12-24T08:58:23.935Z,9.20
2022-12-24T09:00:51.638Z,9.20
2022-12-24T09:03:27.069Z,9.65
2022-12-24T09:05:56.158Z,9.82
2022-12-24T09:08:24.365Z,9.52
2022-12-24T09:10:52.143Z,9.75
2022-12-24T09:13:23.824Z,8.80
2022-12-24T09:15:57.227Z,9.98
2022-12-24T09:18:26.088Z,9.70
2022-12-24T09:20:59.371Z,9.65
2022-12-24T09:23:27.391Z,11.15
2022-12-24T09:25:55.087Z,10.68
2022-12-24T09:28:24.120Z,10.40
2022-12-24T09:31:02.896Z,9.77
2022-12-24T09:33:32.677Z,9.52
2022-12-24T09:36:01.559Z,10.07
2022-12-24T09:38:31.000Z,10.85
2022-12-24T09:41:03.898Z,10.05
2022-12-24T09:43:37.075Z,10.55
2022-12-24T09:46:05.044Z,9.23
2022-12-24T09:48:40.198Z,9.68
2022-12-24T09:51:10.197Z,9.52
2022-12-24T09:53:49.057Z,9.32
2022-12-24T09:56:19.831Z,9.27
2022-12-24T10:01:25.323Z,8.85
2022-12-24T10:03:54.928Z,9.60
2022-12-24T10:06:30.804Z,9.27
2022-12-24T10:09:14.159Z,8.00
2022-12-24T10:11:55.130Z,9.23
2022-12-24T10:14:23.200Z,8.88
2022-12-24T10:16:51.978Z,9.27
2022-12-24T10:19:25.166Z,9.75
2022-12-24T10:21:56.554Z,9.23
2022-12-24T10:24:31.969Z,9.40
2022-12-24T10:27:26.530Z,9.43
2022-12-24T10:29:57.184Z,10.05
2022-12-24T10:32:30.210Z,10.13
2022-12-24T10:35:02.469Z,9.23
2022-12-24T10:37:31.868Z,8.20
2022-12-24T10:40:00.839Z,7.75
2022-12-24T10:42:37.131Z,8.98
2022-12-24T10:45:07.855Z,7.88
2022-12-24T10:47:35.937Z,8.07
2022-12-24T10:50:22.500Z,7.47
2022-12-24T10:52:52.245Z,7.93
2022-12-24T10:55:20.211Z,7.70
2022-12-24T10:57:57.787Z,7.53
2022-12-24T11:00:33.545Z,7.22
2022-12-24T11:03:52.408Z,9.68
2022-12-24T11:06:24.431Z,7.10
2022-12-24T11:08:53.877Z,7.05
2022-12-24T11:11:23.477Z,6.78
2022-12-24T11:13:51.347Z,6.60
2022-12-24T11:16:24.522Z,5.68
2022-12-24T11:18:54.839Z,6.50
2022-12-24T11:21:35.993Z,8.23
2022-12-24T11:24:09.662Z,6.90
2022-12-24T11:26:37.340Z,6.43
2022-12-24T11:29:04.920Z,8.43
2022-12-24T11:31:37.203Z,6.40
2022-12-24T11:34:31.655Z,7.30
2022-12-24T11:37:14.085Z,6.72
2022-12-24T11:39:45.557Z,6.30
2022-12-24T11:42:31.587Z,7.88
2022-12-24T11:45:00.597Z,8.45
2022-12-24T11:47:39.340Z,7.85
2022-12-24T11:50:39.417Z,8.02
2022-12-24T11:53:12.007Z,8.95
2022-12-24T11:55:46.564Z,7.80
2022-12-24T11:58:22.548Z,7.03
2022-12-24T12:00:53.128Z,8.52
2022-12-24T12:03:37.149Z,7.63
2022-12-24T12:06:08.827Z,8.15
2022-12-24T12:08:37.067Z,7.10
2022-12-24T12:11:24.420Z,7.10
2022-12-24T12:13:53.084Z,6.70
2022-12-24T12:16:24.085Z,6.72
2022-12-24T12:19:07.484Z,6.72
2022-12-24T12:21:43.198Z,5.57
2022-12-24T12:24:15.755Z,7.38
2022-12-24T12:26:43.861Z,6.10
2022-12-24T12:29:12.120Z,7.10
2022-12-24T12:31:45.897Z,7.50
2022-12-24T12:34:27.371Z,5.68
2022-12-24T12:36:58.396Z,7.75
2022-12-24T12:39:25.976Z,6.25
2022-12-24T12:42:00.473Z,4.95
2022-12-24T12:44:31.275Z,4.95
2022-12-24T12:47:02.665Z,5.43
2022-12-24T12:49:37.554Z,4.50
2022-12-24T12:52:21.491Z,5.88
2022-12-24T12:54:52.095Z,4.78
2022-12-24T12:59:58.783Z,4.72
2022-12-24T13:02:40.218Z,5.35
2022-12-24T13:05:08.523Z,5.35
2022-12-24T13:07:45.145Z,5.43
2022-12-24T13:10:26.585Z,5.30
2022-12-24T13:13:03.967Z,5.25
2022-12-24T13:15:50.405Z,4.82
2022-12-24T13:18:41.254Z,4.45
2022-12-24T13:21:38.401Z,4.53
2022-12-24T13:24:28.402Z,5.00
2022-12-24T13:27:14.850Z,6.10
2022-12-24T13:29:53.596Z,4.15
2022-12-24T13:32:22.037Z,4.57
2022-12-24T13:34:54.224Z,5.88
2022-12-24T13:37:24.206Z,4.40
2022-12-24T13:40:07.617Z,5.05
2022-12-24T13:42:55.204Z,5.40
2022-12-24T13:45:32.108Z,4.88
2022-12-24T13:48:20.649Z,4.43
2022-12-24T13:50:56.222Z,5.10
2022-12-24T13:53:28.772Z,5.07
2022-12-24T13:55:58.841Z,4.20
2022-12-24T13:58:26.953Z,4.80
2022-12-24T14:00:56.943Z,4.43
2022-12-24T14:03:27.074Z,5.63
2022-12-24T14:05:58.599Z,4.97
2022-12-24T14:08:29.044Z,4.93
2022-12-24T14:13:39.912Z,5.07
2022-12-24T14:16:13.604Z,5.28
2022-12-24T14:18:51.389Z,5.88
2022-12-24T14:21:24.648Z,4.80
2022-12-24T14:23:55.745Z,5.75
2022-12-24T14:26:25.648Z,5.30
2022-12-24T14:28:57.220Z,5.53
2022-12-24T14:31:25.062Z,5.80
2022-12-24T14:34:07.126Z,5.82
2022-12-24T14:36:35.007Z,5.53
2022-12-24T14:39:04.373Z,5.57
2022-12-24T14:41:50.384Z,5.20
2022-12-24T14:44:24.474Z,5.82
2022-12-24T14:46:59.671Z,5.30
2022-12-24T14:49:30.177Z,5.10
2022-12-24T14:54:31.878Z,5.57
2022-12-24T14:57:11.966Z,5.20
2022-12-24T14:59:52.476Z,5.45
2022-12-24T15:05:09.087Z,4.90
2022-12-24T15:07:43.553Z,6.65
2022-12-24T15:10:25.811Z,5.53
2022-12-24T15:12:54.594Z,5.75
2022-12-24T15:15:22.631Z,5.15
2022-12-24T15:17:51.691Z,4.95
2022-12-24T15:20:21.351Z,5.40
2022-12-24T15:22:51.472Z,5.80
2022-12-24T15:25:42.501Z,4.82
2022-12-24T15:28:20.734Z,6.32
2022-12-24T15:30:49.254Z,5.20
2022-12-24T15:33:18.811Z,5.50
2022-12-24T15:35:54.135Z,7.03
2022-12-24T15:38:28.245Z,5.93
2022-12-24T15:40:56.140Z,5.70
2022-12-24T15:43:23.905Z,6.40
2022-12-24T15:45:51.642Z,5.10
2022-12-24T15:48:25.264Z,5.05
2022-12-24T15:50:55.258Z,6.07
2022-12-24T15:53:25.932Z,5.63
2022-12-24T15:56:12.491Z,5.72
2022-12-24T15:58:41.669Z,5.05
2022-12-24T16:01:16.074Z,5.30
2022-12-24T16:03:54.274Z,5.10
2022-12-24T16:06:22.805Z,5.93
2022-12-24T16:08:53.432Z,4.85
2022-12-24T16:11:23.832Z,4.65
2022-12-24T16:13:51.995Z,5.55
2022-12-24T16:16:21.360Z,4.55
2022-12-24T16:18:49.441Z,4.90
2022-12-24T16:21:41.272Z,6.57
2022-12-24T16:24:20.771Z,5.18
2022-12-24T16:26:49.565Z,5.57
2022-12-24T16:29:18.171Z,6.22
2022-12-24T16:31:46.046Z,8.00
2022-12-24T16:34:18.323Z,6.47
2022-12-24T16:36:47.220Z,8.30
2022-12-24T16:39:26.857Z,9.80
2022-12-24T16:42:14.701Z,11.52
2022-12-24T16:44:43.033Z,22.40
2022-12-24T16:47:13.469Z,14.88
2022-12-24T16:49:41.050Z,9.52
2022-12-24T16:52:13.348Z,6.97
2022-12-24T16:54:43.965Z,5.32
2022-12-24T16:57:11.567Z,5.78
2022-12-24T16:59:39.450Z,5.97
2022-12-24T17:02:14.069Z,5.80
2022-12-24T17:04:42.889Z,6.07
2022-12-24T17:07:14.423Z,7.45
2022-12-24T17:09:42.129Z,9.93
2022-12-24T17:12:09.734Z,10.73
2022-12-24T17:14:37.372Z,39.00
2022-12-24T17:17:05.190Z,32.30
2022-12-24T17:19:32.954Z,41.65
2022-12-24T17:22:01.069Z,40.25
2022-12-24T17:24:28.778Z,30.02
2022-12-24T17:26:56.724Z,35.63
2022-12-24T17:29:24.464Z,36.28
2022-12-24T17:31:52.435Z,22.42
2022-12-24T17:34:21.892Z,16.25
2022-12-24T17:36:51.450Z,18.08
2022-12-24T17:39:27.209Z,18.87
2022-12-24T17:41:55.947Z,7.07
2022-12-24T17:44:23.695Z,5.80
2022-12-24T17:46:51.430Z,7.10
2022-12-24T17:49:20.987Z,8.40
2022-12-24T17:51:50.577Z,11.15
2022-12-24T17:54:19.543Z,15.00
2022-12-24T17:56:47.096Z,27.20
2022-12-24T17:59:16.534Z,37.15
2022-12-24T18:01:44.634Z,28.85
2022-12-24T18:04:15.270Z,16.88
2022-12-24T18:06:48.978Z,15.82
2022-12-24T18:09:25.571Z,19.38
2022-12-24T18:11:53.621Z,18.67
2022-12-24T18:14:23.866Z,15.52
2022-12-24T18:19:23.302Z,13.98
2022-12-24T18:21:51.825Z,13.95
2022-12-24T18:24:20.874Z,12.55
2022-12-24T18:26:50.603Z,13.38
2022-12-24T18:29:20.467Z,13.15
2022-12-24T18:34:19.819Z,12.77
2022-12-24T18:36:54.749Z,13.63
2022-12-24T18:39:24.456Z,13.52
2022-12-24T18:41:52.477Z,12.50
2022-12-24T18:44:24.834Z,12.23
2022-12-24T18:46:53.397Z,12.60
2022-12-24T18:49:21.297Z,12.07
2022-12-24T18:51:49.922Z,12.00
2022-12-24T18:54:17.949Z,12.23
2022-12-24T18:56:51.559Z,11.73
2022-12-24T18:59:20.586Z,11.48
2022-12-24T19:01:49.305Z,12.70
2022-12-24T19:04:17.460Z,11.77
2022-12-24T19:06:52.704Z,13.13
2022-12-24T19:09:22.845Z,11.35
2022-12-24T19:11:51.738Z,11.60
2022-12-24T19:14:20.668Z,11.30
2022-12-24T19:16:53.363Z,10.95
2022-12-24T19:19:26.169Z,10.88
2022-12-24T19:21:57.709Z,10.45
2022-12-24T19:24:28.569Z,11.25
2022-12-24T19:26:56.482Z,11.50
2022-12-24T19:29:24.099Z,11.15
2022-12-24T19:31:52.234Z,10.85
2022-12-24T19:34:21.042Z,11.02
2022-12-24T19:36:50.142Z,11.48
2022-12-24T19:39:20.012Z,9.93
2022-12-24T19:41:48.203Z,11.52
2022-12-24T19:44:15.993Z,10.77
2022-12-24T19:46:43.596Z,10.43
2022-12-24T19:49:11.862Z,11.32
2022-12-24T19:51:39.617Z,11.32
2022-12-24T19:54:14.948Z,11.05
2022-12-24T19:56:48.414Z,11.13
2022-12-24T19:59:16.032Z,11.95
2022-12-24T20:01:45.665Z,12.55
2022-12-24T20:04:14.366Z,12.38
2022-12-24T20:06:41.953Z,11.50
2022-12-24T20:09:10.202Z,12.63
2022-12-24T20:11:38.451Z,11.43
2022-12-24T20:14:07.088Z,12.05
2022-12-24T20:16:35.673Z,11.50
2022-12-24T20:19:05.479Z,10.73
2022-12-24T20:21:34.122Z,10.37
2022-12-24T20:24:02.029Z,11.07
2022-12-24T20:26:30.361Z,11.57
2022-12-24T20:28:58.123Z,12.00
2022-12-24T20:31:27.762Z,10.70
2022-12-24T20:33:56.217Z,11.80
2022-12-24T20:36:24.277Z,10.98
2022-12-24T20:38:55.659Z,10.63
2022-12-24T20:41:25.789Z,12.60
2022-12-24T20:43:53.937Z,11.68
2022-12-24T20:46:23.831Z,11.98
2022-12-24T20:48:51.508Z,12.70
2022-12-24T20:51:29.399Z,11.35
2022-12-24T20:53:59.730Z,11.93
2022-12-24T20:56:29.289Z,12.77
2022-12-24T20:58:58.545Z,12.98
2022-12-24T21:01:27.182Z,12.60
2022-12-24T21:03:56.758Z,12.23
2022-12-24T21:06:25.455Z,11.57
2022-12-24T21:08:54.267Z,11.60
2022-12-24T21:11:41.258Z,11.75
2022-12-24T21:14:08.801Z,11.75
2022-12-24T21:16:37.290Z,10.30
2022-12-24T21:19:05.374Z,11.32
2022-12-24T21:21:35.169Z,11.27
2022-12-24T21:24:03.800Z,11.23
2022-12-24T21:26:33.142Z,11.52
2022-12-24T21:29:01.749Z,12.50
2022-12-24T21:31:30.116Z,11.30
2022-12-24T21:33:58.210Z,11.20
2022-12-24T21:36:27.169Z,12.13
2022-12-24T21:38:55.603Z,11.88
2022-12-24T21:41:24.323Z,12.25
2022-12-24T21:43:52.522Z,12.90
2022-12-24T21:46:25.078Z,11.15
2022-12-24T21:49:32.403Z,11.18
2022-12-24T21:52:00.645Z,11.73
2022-12-24T21:54:31.212Z,12.25
2022-12-24T21:59:46.566Z,11.52
2022-12-24T22:02:16.557Z,11.82
2022-12-24T22:04:46.182Z,10.65
2022-12-24T22:07:39.848Z,11.13
2022-12-24T22:10:28.907Z,11.93
2022-12-24T22:12:56.914Z,10.88
2022-12-24T22:15:30.185Z,10.25
2022-12-24T22:18:11.601Z,10.52
2022-12-24T22:20:40.236Z,11.18
2022-12-24T22:23:08.725Z,10.48
2022-12-24T22:25:36.431Z,11.95
2022-12-24T22:28:04.216Z,9.82
2022-12-24T22:30:37.979Z,9.55
2022-12-24T22:33:06.790Z,10.07
2022-12-24T22:35:34.720Z,9.10
2022-12-24T22:38:02.795Z,9.00
2022-12-24T22:40:31.806Z,9.98
2022-12-24T22:42:59.421Z,9.82
2022-12-24T22:45:27.259Z,10.52
2022-12-24T22:47:55.381Z,9.02
2022-12-24T22:50:24.298Z,10.30
2022-12-24T22:52:53.350Z,8.52
2022-12-24T22:55:22.187Z,9.57
2022-12-24T22:57:52.739Z,9.27
2022-12-24T23:02:49.575Z,8.82
2022-12-24T23:05:18.480Z,9.60
2022-12-24T23:07:46.212Z,8.93
2022-12-24T23:10:13.788Z,9.70
2022-12-24T23:12:59.691Z,9.30
2022-12-24T23:15:27.899Z,8.57
2022-12-24T23:17:56.132Z,9.02
2022-12-24T23:20:24.492Z,9.55
2022-12-24T23:22:52.491Z,10.05
2022-12-24T23:25:20.817Z,8.65
2022-12-24T23:27:49.944Z,9.25
2022-12-24T23:30:18.185Z,9.52
2022-12-24T23:32:45.786Z,8.85
2022-12-24T23:35:13.241Z,9.77
2022-12-24T23:37:43.923Z,9.10
2022-12-24T23:40:11.651Z,9.65
2022-12-24T23:42:39.362Z,9.77
2022-12-24T23:45:07.348Z,8.80
2022-12-24T23:47:34.932Z,9.38
2022-12-24T23:50:04.200Z,9.35
2022-12-24T23:52:34.827Z,9.43
2022-12-24T23:55:02.510Z,10.00
2022-12-24T23:57:34.707Z,9.40
